Terminal Aerodrome Forecast
Issued by NWS

Home | Current Version | Previous Version | Text Only | Print | Product List | Glossary On
Versions: 1 2 3 4 5 6 7 8 9 10 11
000
FTUS45 KVEF 191126
TAFEED
TAF
KEED 191126Z 1912/2012 28012G20KT P6SM SKC
     FM191500 27018G28KT P6SM SCT120
     FM200200 28012KT P6SM FEW120=

USA.gov is the U.S. government's official web portal to all federal, state and local government web resources and services.